createdAt,value
2023-01-27T00:00:57.912Z,21.70
2023-01-27T00:03:29.019Z,21.80
2023-01-27T00:06:06.026Z,21.90
2023-01-27T00:08:36.914Z,22.10
2023-01-27T00:11:25.481Z,22.10
2023-01-27T00:13:57.969Z,22.30
2023-01-27T00:16:28.843Z,22.50
2023-01-27T00:18:59.257Z,22.70
2023-01-27T00:21:47.467Z,22.80
2023-01-27T00:24:35.874Z,22.90
2023-01-27T00:27:10.632Z,22.90
2023-01-27T00:29:44.949Z,22.80
2023-01-27T00:32:33.567Z,22.90
2023-01-27T00:35:04.416Z,22.90
2023-01-27T00:37:35.351Z,23.00
2023-01-27T00:40:06.316Z,23.00
2023-01-27T00:42:37.004Z,23.10
2023-01-27T00:45:27.219Z,23.20
2023-01-27T00:47:57.952Z,23.20
2023-01-27T00:50:28.909Z,23.20
2023-01-27T00:53:01.301Z,23.00
2023-01-27T00:55:32.340Z,23.00
2023-01-27T00:58:02.704Z,23.10
2023-01-27T01:00:33.331Z,23.20
2023-01-27T01:03:03.823Z,23.20
2023-01-27T01:05:34.251Z,23.30
2023-01-27T01:08:04.654Z,23.40
2023-01-27T01:10:35.034Z,23.50
2023-01-27T01:13:05.800Z,23.60
2023-01-27T01:15:39.063Z,23.60
2023-01-27T01:18:10.961Z,23.70
2023-01-27T01:20:45.159Z,23.70
2023-01-27T01:23:17.646Z,23.70
2023-01-27T01:25:59.112Z,23.60
2023-01-27T01:28:30.315Z,23.50
2023-01-27T01:31:19.327Z,23.50
2023-01-27T01:33:51.687Z,23.50
2023-01-27T01:36:24.888Z,23.60
2023-01-27T01:39:01.231Z,23.70
2023-01-27T01:41:31.162Z,23.90
2023-01-27T01:44:02.079Z,24.20
2023-01-27T01:46:32.864Z,24.60
2023-01-27T01:49:05.916Z,25.10
2023-01-27T01:51:36.879Z,25.60
2023-01-27T01:54:23.758Z,26.00
2023-01-27T01:57:04.629Z,26.50
2023-01-27T01:59:56.553Z,26.70
2023-01-27T02:02:28.442Z,27.10
2023-01-27T02:05:26.221Z,27.50
2023-01-27T02:08:31.888Z,27.80
2023-01-27T02:11:03.806Z,28.20
2023-01-27T02:13:35.083Z,28.30
2023-01-27T02:16:06.042Z,28.20
2023-01-27T02:18:37.888Z,27.90
2023-01-27T02:21:09.152Z,27.80
2023-01-27T02:24:09.586Z,27.90
2023-01-27T02:26:46.071Z,28.10
2023-01-27T02:29:18.321Z,28.10
2023-01-27T02:31:48.753Z,28.20
2023-01-27T02:34:25.171Z,28.30
2023-01-27T02:37:03.293Z,28.50
2023-01-27T02:39:45.069Z,28.40
2023-01-27T02:42:19.055Z,28.30
2023-01-27T02:44:49.434Z,28.40
2023-01-27T02:47:19.856Z,28.50
2023-01-27T02:49:51.282Z,28.60
2023-01-27T02:52:21.765Z,28.60
2023-01-27T02:54:52.215Z,28.20
2023-01-27T02:57:22.734Z,27.90
2023-01-27T02:59:53.548Z,27.60
2023-01-27T03:02:25.064Z,27.30
2023-01-27T03:04:55.561Z,27.40
2023-01-27T03:07:27.608Z,27.50
2023-01-27T03:09:57.898Z,27.70
2023-01-27T03:12:28.234Z,28.10
2023-01-27T03:15:16.307Z,28.40
2023-01-27T03:18:05.054Z,28.60
2023-01-27T03:20:35.799Z,28.70
2023-01-27T03:23:07.034Z,28.80
2023-01-27T03:25:38.334Z,28.90
2023-01-27T03:28:09.146Z,28.90
2023-01-27T03:30:40.183Z,28.70
2023-01-27T03:33:12.264Z,28.60
2023-01-27T03:35:50.520Z,28.70
2023-01-27T03:38:39.635Z,28.70
2023-01-27T03:41:28.775Z,28.80
2023-01-27T03:44:20.120Z,28.90
2023-01-27T03:46:50.803Z,29.00
2023-01-27T03:49:21.283Z,29.20
2023-01-27T03:51:51.673Z,29.20
2023-01-27T03:54:22.027Z,29.10
2023-01-27T03:56:52.281Z,28.80
2023-01-27T03:59:22.656Z,28.50
2023-01-27T04:01:52.990Z,28.20
2023-01-27T04:04:41.527Z,28.10
2023-01-27T04:07:13.025Z,28.10
2023-01-27T04:09:43.724Z,28.30
2023-01-27T04:12:15.347Z,28.40
2023-01-27T04:14:46.223Z,28.60
2023-01-27T04:17:19.468Z,28.70
2023-01-27T04:19:50.128Z,28.90
2023-01-27T04:22:20.570Z,28.90
2023-01-27T04:24:52.030Z,28.80
2023-01-27T04:27:22.439Z,28.60
2023-01-27T04:29:52.683Z,28.40
2023-01-27T04:32:23.016Z,28.40
2023-01-27T04:34:53.470Z,28.40
2023-01-27T04:37:23.864Z,28.50
2023-01-27T04:39:54.775Z,28.40
2023-01-27T04:42:25.419Z,28.30
2023-01-27T04:44:55.703Z,28.30
2023-01-27T04:47:26.044Z,28.20
2023-01-27T04:49:56.303Z,28.20
2023-01-27T04:52:26.579Z,28.20
2023-01-27T04:54:57.036Z,28.20
2023-01-27T04:57:29.141Z,28.10
2023-01-27T05:00:00.485Z,28.10
2023-01-27T05:02:30.790Z,28.10
2023-01-27T05:05:01.047Z,28.10
2023-01-27T05:07:32.220Z,28.10
2023-01-27T05:10:02.730Z,28.00
2023-01-27T05:12:32.991Z,28.00
2023-01-27T05:15:03.278Z,28.00
2023-01-27T05:17:37.129Z,27.80
2023-01-27T05:20:07.799Z,27.80
2023-01-27T05:22:38.209Z,27.90
2023-01-27T05:25:09.413Z,27.90
2023-01-27T05:27:40.434Z,28.00
2023-01-27T05:30:11.418Z,28.10
2023-01-27T05:32:41.942Z,28.10
2023-01-27T05:35:12.690Z,28.00
2023-01-27T05:37:43.267Z,28.10
2023-01-27T05:40:14.533Z,28.00
2023-01-27T05:42:44.965Z,27.90
2023-01-27T05:45:16.455Z,27.90
2023-01-27T05:47:50.436Z,27.80
2023-01-27T05:50:21.691Z,27.80
2023-01-27T05:52:52.009Z,27.70
2023-01-27T05:55:22.797Z,27.70
2023-01-27T05:57:52.992Z,27.70
2023-01-27T06:00:23.898Z,27.70
2023-01-27T06:02:54.299Z,27.60
2023-01-27T06:05:26.011Z,27.50
2023-01-27T06:07:57.694Z,27.50
2023-01-27T06:10:28.023Z,27.40
2023-01-27T06:12:58.299Z,27.30
2023-01-27T06:15:28.979Z,27.30
2023-01-27T06:17:59.206Z,27.20
2023-01-27T06:20:29.751Z,27.20
2023-01-27T06:23:00.803Z,27.20
2023-01-27T06:25:30.999Z,27.10
2023-01-27T06:28:01.641Z,27.10
2023-01-27T06:30:33.142Z,27.10
2023-01-27T06:33:04.134Z,27.10
2023-01-27T06:35:37.186Z,27.00
2023-01-27T06:38:13.210Z,27.00
2023-01-27T06:40:43.942Z,27.00
2023-01-27T06:43:16.421Z,27.00
2023-01-27T06:45:47.659Z,27.00
2023-01-27T06:48:18.791Z,27.00
2023-01-27T06:50:49.480Z,27.00
2023-01-27T06:53:20.290Z,26.90
2023-01-27T06:55:51.033Z,26.90
2023-01-27T06:58:21.350Z,26.80
2023-01-27T07:00:51.602Z,26.70
2023-01-27T07:03:22.003Z,26.70
2023-01-27T07:05:52.585Z,26.60
2023-01-27T07:08:28.644Z,26.50
2023-01-27T07:10:58.998Z,26.40
2023-01-27T07:13:29.451Z,26.40
2023-01-27T07:15:59.758Z,26.30
2023-01-27T07:18:30.617Z,26.10
2023-01-27T07:21:01.652Z,26.10
2023-01-27T07:23:32.406Z,26.00
2023-01-27T07:26:12.515Z,25.90
2023-01-27T07:28:49.744Z,25.80
2023-01-27T07:31:20.300Z,25.70
2023-01-27T07:33:51.002Z,25.70
2023-01-27T07:36:21.568Z,25.60
2023-01-27T07:38:55.280Z,25.50
2023-01-27T07:41:27.761Z,25.50
2023-01-27T07:43:58.688Z,25.50
2023-01-27T07:46:29.605Z,25.40
2023-01-27T07:49:00.207Z,25.30
2023-01-27T07:51:30.847Z,25.30
2023-01-27T07:54:02.177Z,25.30
2023-01-27T07:56:33.886Z,25.20
2023-01-27T07:59:04.422Z,25.20
2023-01-27T08:01:36.193Z,25.20
2023-01-27T08:04:10.593Z,25.10
2023-01-27T08:06:46.115Z,25.10
2023-01-27T08:09:17.946Z,25.10
2023-01-27T08:11:50.495Z,25.00
2023-01-27T08:14:21.254Z,25.00
2023-01-27T08:16:53.155Z,24.90
2023-01-27T08:19:23.429Z,24.90
2023-01-27T08:21:53.806Z,24.70
2023-01-27T08:24:24.339Z,24.70
2023-01-27T08:26:54.665Z,24.60
2023-01-27T08:29:25.442Z,24.50
2023-01-27T08:31:56.033Z,24.40
2023-01-27T08:34:26.664Z,24.30
2023-01-27T08:36:56.935Z,24.20
2023-01-27T08:39:27.412Z,24.20
2023-01-27T08:41:57.673Z,24.20
2023-01-27T08:44:29.946Z,24.10
2023-01-27T08:47:00.586Z,24.10
2023-01-27T08:49:31.238Z,24.10
2023-01-27T08:52:01.966Z,24.00
2023-01-27T08:54:32.610Z,24.00
2023-01-27T08:57:04.393Z,23.90
2023-01-27T08:59:35.079Z,23.80
2023-01-27T09:02:05.713Z,23.70
2023-01-27T09:04:39.641Z,23.60
2023-01-27T09:07:10.367Z,23.60
2023-01-27T09:09:41.114Z,23.50
2023-01-27T09:12:12.235Z,23.30
2023-01-27T09:14:42.489Z,23.20
2023-01-27T09:17:12.822Z,23.20
2023-01-27T09:19:43.110Z,23.20
2023-01-27T09:22:13.355Z,23.10
2023-01-27T09:24:44.090Z,23.00
2023-01-27T09:27:14.817Z,22.90
2023-01-27T09:29:45.470Z,22.80
2023-01-27T09:32:17.361Z,22.70
2023-01-27T09:34:48.144Z,22.60
2023-01-27T09:37:19.185Z,22.60
2023-01-27T09:39:54.715Z,22.50
2023-01-27T09:42:41.079Z,22.40
2023-01-27T09:45:30.090Z,22.40
2023-01-27T09:48:27.460Z,22.30
2023-01-27T09:51:05.058Z,22.10
2023-01-27T09:54:23.004Z,22.10
2023-01-27T09:57:01.174Z,22.00
2023-01-27T09:59:50.099Z,21.90
2023-01-27T10:02:21.195Z,21.80
2023-01-27T10:04:58.610Z,21.80
2023-01-27T10:08:27.204Z,21.70
2023-01-27T10:11:11.367Z,21.70
2023-01-27T10:13:47.825Z,21.70
2023-01-27T10:16:42.326Z,21.70
2023-01-27T10:19:48.945Z,21.60
2023-01-27T10:22:50.194Z,21.60
2023-01-27T10:25:27.178Z,21.50
2023-01-27T10:28:02.087Z,21.40
2023-01-27T10:30:38.004Z,21.40
2023-01-27T10:33:21.127Z,21.40
2023-01-27T10:36:04.901Z,21.40
2023-01-27T10:38:48.138Z,21.30
2023-01-27T10:41:50.922Z,21.30
2023-01-27T10:44:46.093Z,21.20
2023-01-27T10:47:22.741Z,21.20
2023-01-27T10:50:11.133Z,21.20
2023-01-27T10:52:56.099Z,21.10
2023-01-27T10:55:37.753Z,21.00
2023-01-27T10:58:31.445Z,20.90
2023-01-27T11:01:21.672Z,20.90
2023-01-27T11:04:17.169Z,20.80
2023-01-27T11:06:49.683Z,20.80
2023-01-27T11:09:33.518Z,20.70
2023-01-27T11:12:10.608Z,20.70
2023-01-27T11:14:47.874Z,20.70
2023-01-27T11:17:30.939Z,20.70
2023-01-27T11:20:27.607Z,20.70
2023-01-27T11:23:17.471Z,20.70
2023-01-27T11:26:15.597Z,20.60
2023-01-27T11:29:07.256Z,20.60
2023-01-27T11:31:49.985Z,20.60
2023-01-27T11:34:29.723Z,20.60
2023-01-27T11:37:00.877Z,20.60
2023-01-27T11:39:35.897Z,20.50
2023-01-27T11:42:06.725Z,20.50
2023-01-27T11:44:38.982Z,20.50
2023-01-27T11:47:12.648Z,20.50
2023-01-27T11:49:48.496Z,20.50
2023-01-27T11:52:23.886Z,20.60
2023-01-27T11:55:09.405Z,20.60
2023-01-27T11:57:46.529Z,20.60
2023-01-27T12:00:45.396Z,20.60
2023-01-27T12:03:41.100Z,20.60
2023-01-27T12:06:43.242Z,20.70
2023-01-27T12:09:41.290Z,20.60
2023-01-27T12:12:17.749Z,20.70
2023-01-27T12:14:56.112Z,20.80
2023-01-27T12:17:40.406Z,20.70
2023-01-27T12:20:28.994Z,20.70
2023-01-27T12:23:07.482Z,20.70
2023-01-27T12:25:57.130Z,20.70
2023-01-27T12:28:35.109Z,20.60
2023-01-27T12:31:33.298Z,20.60
2023-01-27T12:34:28.942Z,20.60
2023-01-27T12:37:00.822Z,20.50
2023-01-27T12:39:43.879Z,20.60
2023-01-27T12:43:04.607Z,20.60
2023-01-27T12:45:40.480Z,20.60
2023-01-27T12:48:17.719Z,20.60
2023-01-27T12:50:59.542Z,20.60
2023-01-27T12:53:30.665Z,20.60
2023-01-27T12:56:23.180Z,20.60
2023-01-27T12:59:03.922Z,20.70
2023-01-27T13:01:40.002Z,20.60
2023-01-27T13:04:22.577Z,20.60
2023-01-27T13:07:08.715Z,20.70
2023-01-27T13:09:50.722Z,20.70
2023-01-27T13:12:23.666Z,20.70
2023-01-27T13:15:10.127Z,20.70
2023-01-27T13:17:52.216Z,20.70
2023-01-27T13:20:46.284Z,20.70
2023-01-27T13:23:19.445Z,20.70
2023-01-27T13:26:20.456Z,20.70
2023-01-27T13:29:12.992Z,20.70
2023-01-27T13:31:56.846Z,20.70
2023-01-27T13:34:46.961Z,20.70
2023-01-27T13:37:38.314Z,20.70
2023-01-27T13:40:32.657Z,20.70
2023-01-27T13:43:21.988Z,20.70
2023-01-27T13:46:13.967Z,20.70
2023-01-27T13:49:04.467Z,20.70
2023-01-27T13:51:39.515Z,20.70
2023-01-27T13:54:13.443Z,20.70
2023-01-27T13:57:05.647Z,20.70
2023-01-27T14:00:02.285Z,20.70
2023-01-27T14:02:57.437Z,20.70
2023-01-27T14:05:54.194Z,20.70
2023-01-27T14:08:43.167Z,20.70
2023-01-27T14:11:23.201Z,20.70
2023-01-27T14:14:19.651Z,20.70
2023-01-27T14:16:58.978Z,20.70
2023-01-27T14:20:07.314Z,20.70
2023-01-27T14:22:55.682Z,20.70
2023-01-27T14:25:47.132Z,20.60
2023-01-27T14:28:35.464Z,20.60
2023-01-27T14:31:20.886Z,20.60
2023-01-27T14:34:17.443Z,20.60
2023-01-27T14:37:32.029Z,20.60
2023-01-27T14:40:26.716Z,20.60
2023-01-27T14:43:41.548Z,20.70
2023-01-27T14:46:39.216Z,20.70
2023-01-27T14:49:15.721Z,20.70
2023-01-27T14:52:18.488Z,20.70
2023-01-27T14:55:03.369Z,20.70
2023-01-27T14:58:10.462Z,20.70
2023-01-27T15:01:03.768Z,20.70
2023-01-27T15:04:03.729Z,20.70
2023-01-27T15:06:55.312Z,20.70
2023-01-27T15:09:55.575Z,20.70
2023-01-27T15:12:34.906Z,20.70
2023-01-27T15:15:12.041Z,20.60
2023-01-27T15:17:46.975Z,20.70
2023-01-27T15:20:37.167Z,20.70
2023-01-27T15:23:33.389Z,20.70
2023-01-27T15:26:08.709Z,20.70
2023-01-27T15:28:45.004Z,20.70
2023-01-27T15:31:19.360Z,20.60
2023-01-27T15:34:16.807Z,20.60
2023-01-27T15:37:07.037Z,20.60
2023-01-27T15:40:07.581Z,20.60
2023-01-27T15:43:10.036Z,20.60
2023-01-27T15:45:47.009Z,20.60
2023-01-27T15:48:24.625Z,20.70
2023-01-27T15:51:08.000Z,20.70
2023-01-27T15:53:44.746Z,20.70
2023-01-27T15:56:15.063Z,20.70
2023-01-27T15:59:06.869Z,20.70
2023-01-27T16:01:40.528Z,20.70
2023-01-27T16:04:14.708Z,20.70
2023-01-27T16:07:06.987Z,20.70
2023-01-27T16:09:53.779Z,20.70
2023-01-27T16:12:30.448Z,20.60
2023-01-27T16:15:05.489Z,20.70
2023-01-27T16:17:36.812Z,20.70
2023-01-27T16:20:21.699Z,20.70
2023-01-27T16:23:02.116Z,20.70
2023-01-27T16:25:47.757Z,20.70
2023-01-27T16:28:30.325Z,20.70
2023-01-27T16:31:29.767Z,20.70
2023-01-27T16:34:08.411Z,20.70
2023-01-27T16:36:39.680Z,20.70
2023-01-27T16:39:30.443Z,20.70
2023-01-27T16:42:02.756Z,20.70
2023-01-27T16:44:45.179Z,20.60
2023-01-27T16:47:26.954Z,20.60
2023-01-27T16:50:02.163Z,20.60
2023-01-27T16:52:42.263Z,20.60
2023-01-27T16:55:26.985Z,20.60
2023-01-27T16:57:59.043Z,20.60
2023-01-27T17:00:34.344Z,20.60
2023-01-27T17:03:12.607Z,20.60
2023-01-27T17:05:44.346Z,20.60
2023-01-27T17:08:37.300Z,20.60
2023-01-27T17:11:16.314Z,20.60
2023-01-27T17:13:54.878Z,20.60
2023-01-27T17:16:37.448Z,20.60
2023-01-27T17:19:17.286Z,20.60
2023-01-27T17:21:52.041Z,20.50
2023-01-27T17:24:27.774Z,20.50
2023-01-27T17:27:39.079Z,20.50
2023-01-27T17:30:26.652Z,20.60
2023-01-27T17:33:10.758Z,20.60
2023-01-27T17:35:42.942Z,20.60
2023-01-27T17:38:21.973Z,20.60
2023-01-27T17:40:57.401Z,20.50
2023-01-27T17:43:33.953Z,20.50
2023-01-27T17:46:20.781Z,20.60
2023-01-27T17:49:23.670Z,20.60
2023-01-27T17:51:59.378Z,20.60
2023-01-27T17:54:41.400Z,20.60
2023-01-27T17:57:21.328Z,20.60
2023-01-27T18:00:12.798Z,20.60
2023-01-27T18:02:57.325Z,20.60
2023-01-27T18:05:31.570Z,20.60
2023-01-27T18:08:03.281Z,20.60
2023-01-27T18:10:33.858Z,20.60
2023-01-27T18:13:23.917Z,20.60
2023-01-27T18:16:04.358Z,20.60
2023-01-27T18:18:39.249Z,20.60
2023-01-27T18:21:12.896Z,20.60
2023-01-27T18:23:53.316Z,20.50
2023-01-27T18:26:45.279Z,20.50
2023-01-27T18:29:27.776Z,20.50
2023-01-27T18:32:19.708Z,20.50
2023-01-27T18:34:52.615Z,20.50
2023-01-27T18:37:26.299Z,20.50
2023-01-27T18:39:58.935Z,20.50
2023-01-27T18:42:32.826Z,20.50
2023-01-27T18:45:03.851Z,20.50
2023-01-27T18:47:39.191Z,20.40
2023-01-27T18:50:18.439Z,20.40
2023-01-27T18:52:50.391Z,20.40
2023-01-27T18:55:26.706Z,20.40
2023-01-27T18:58:01.382Z,20.40
2023-01-27T19:00:42.830Z,20.40
2023-01-27T19:03:23.943Z,20.40
2023-01-27T19:05:55.208Z,20.40
2023-01-27T19:08:36.266Z,20.50
2023-01-27T19:11:06.559Z,20.40
2023-01-27T19:13:37.305Z,20.40
2023-01-27T19:16:11.988Z,20.40
2023-01-27T19:18:43.781Z,20.40
2023-01-27T19:21:16.566Z,20.50
2023-01-27T19:23:47.586Z,20.40
2023-01-27T19:26:25.366Z,20.50
2023-01-27T19:28:58.659Z,20.50
2023-01-27T19:31:38.130Z,20.50
2023-01-27T19:34:11.267Z,20.50
2023-01-27T19:36:48.973Z,20.50
2023-01-27T19:39:23.771Z,20.50
2023-01-27T19:41:54.797Z,20.50
2023-01-27T19:44:26.438Z,20.50
2023-01-27T19:46:57.732Z,20.50
2023-01-27T19:49:28.094Z,20.50
2023-01-27T19:51:59.990Z,20.50
2023-01-27T19:54:32.155Z,20.50
2023-01-27T19:57:04.254Z,20.60
2023-01-27T19:59:35.154Z,20.60
2023-01-27T20:02:07.324Z,20.60
2023-01-27T20:04:38.238Z,20.70
2023-01-27T20:07:08.586Z,20.70
2023-01-27T20:09:39.403Z,20.80
2023-01-27T20:12:17.282Z,20.80
2023-01-27T20:14:48.429Z,20.80
2023-01-27T20:17:18.836Z,20.90
2023-01-27T20:19:49.818Z,20.90
2023-01-27T20:22:20.071Z,20.90
2023-01-27T20:24:50.677Z,21.00
2023-01-27T20:27:21.621Z,21.00
2023-01-27T20:29:52.571Z,21.00
2023-01-27T20:32:27.425Z,21.00
2023-01-27T20:35:00.883Z,21.10
2023-01-27T20:37:31.308Z,21.10
2023-01-27T20:40:01.615Z,21.20
2023-01-27T20:42:32.984Z,21.30
2023-01-27T20:45:04.208Z,21.30
2023-01-27T20:47:35.005Z,21.30
2023-01-27T20:50:07.365Z,21.30
2023-01-27T20:52:39.040Z,21.30
2023-01-27T20:55:11.169Z,21.30
2023-01-27T20:57:41.453Z,21.40
2023-01-27T21:00:18.944Z,21.50
2023-01-27T21:02:50.224Z,21.60
2023-01-27T21:05:21.515Z,21.70
2023-01-27T21:07:52.942Z,21.70
2023-01-27T21:10:23.520Z,21.80
2023-01-27T21:12:53.711Z,21.80
2023-01-27T21:15:24.461Z,21.90
2023-01-27T21:17:55.959Z,21.90
2023-01-27T21:20:26.219Z,21.90
2023-01-27T21:22:56.497Z,21.80
2023-01-27T21:25:27.641Z,21.80
2023-01-27T21:27:58.151Z,21.80
2023-01-27T21:30:29.979Z,21.80
2023-01-27T21:33:00.845Z,21.80
2023-01-27T21:35:36.113Z,21.80
2023-01-27T21:38:06.607Z,21.90
2023-01-27T21:40:36.980Z,22.00
2023-01-27T21:43:26.038Z,22.30
2023-01-27T21:46:01.678Z,22.70
2023-01-27T21:48:32.265Z,23.10
2023-01-27T21:51:02.482Z,23.50
2023-01-27T21:53:39.771Z,23.90
2023-01-27T21:56:12.414Z,24.40
2023-01-27T21:58:43.065Z,24.70
2023-01-27T22:01:13.818Z,24.90
2023-01-27T22:03:44.325Z,25.10
2023-01-27T22:06:14.611Z,25.40
2023-01-27T22:08:44.987Z,25.70
2023-01-27T22:11:15.727Z,26.00
2023-01-27T22:13:46.376Z,25.90
2023-01-27T22:16:20.199Z,26.10
2023-01-27T22:18:51.951Z,26.40
2023-01-27T22:21:22.186Z,26.70
2023-01-27T22:23:52.855Z,27.00
2023-01-27T22:26:23.208Z,27.40
2023-01-27T22:28:53.959Z,27.60
2023-01-27T22:31:24.874Z,27.80
2023-01-27T22:33:57.092Z,28.00
2023-01-27T22:36:27.330Z,28.10
2023-01-27T22:38:57.857Z,28.30
2023-01-27T22:41:28.132Z,28.40
2023-01-27T22:44:01.401Z,28.50
2023-01-27T22:46:31.776Z,28.60
2023-01-27T22:49:02.124Z,28.70
2023-01-27T22:51:32.348Z,28.80
2023-01-27T22:54:03.707Z,28.90
2023-01-27T22:56:36.112Z,28.90
2023-01-27T22:59:07.055Z,28.80
2023-01-27T23:01:37.681Z,28.90
2023-01-27T23:04:08.275Z,28.90
2023-01-27T23:06:38.568Z,28.80
2023-01-27T23:09:08.923Z,28.70
2023-01-27T23:11:39.207Z,28.60
2023-01-27T23:14:09.665Z,28.60
2023-01-27T23:16:40.389Z,28.50
2023-01-27T23:19:10.809Z,28.50
2023-01-27T23:21:41.128Z,28.40
2023-01-27T23:24:11.843Z,28.40
2023-01-27T23:26:42.302Z,28.50
2023-01-27T23:29:24.188Z,28.40
2023-01-27T23:31:55.583Z,28.30
2023-01-27T23:34:26.279Z,28.30
2023-01-27T23:36:56.651Z,28.40
2023-01-27T23:39:26.939Z,28.50
2023-01-27T23:41:57.244Z,28.50
2023-01-27T23:44:27.619Z,28.60
2023-01-27T23:46:57.938Z,28.70
2023-01-27T23:49:28.225Z,28.80
2023-01-27T23:51:58.584Z,28.90
2023-01-27T23:54:28.804Z,29.00
2023-01-27T23:56:59.467Z,29.00
2023-01-27T23:59:30.105Z,29.00
